createdAt,value
2022-09-15T00:01:32.874Z,11.38
2022-09-15T00:03:59.438Z,12.38
2022-09-15T00:06:25.951Z,12.25
2022-09-15T00:08:52.476Z,14.53
2022-09-15T00:11:22.115Z,11.60
2022-09-15T00:13:49.435Z,11.35
2022-09-15T00:16:17.763Z,12.90
2022-09-15T00:18:46.212Z,11.23
2022-09-15T00:21:16.907Z,11.47
2022-09-15T00:23:43.956Z,11.95
2022-09-15T00:26:12.635Z,11.27
2022-09-15T00:28:40.116Z,11.88
2022-09-15T00:31:08.660Z,12.85
2022-09-15T00:33:35.755Z,14.73
2022-09-15T00:36:05.797Z,14.57
2022-09-15T00:38:33.751Z,12.93
2022-09-15T00:41:01.328Z,16.23
2022-09-15T00:43:44.252Z,15.00
2022-09-15T00:46:11.869Z,15.30
2022-09-15T00:48:44.135Z,15.63
2022-09-15T00:51:16.614Z,15.68
2022-09-15T00:53:46.500Z,16.75
2022-09-15T00:56:15.887Z,17.08
2022-09-15T00:58:46.265Z,19.57
2022-09-15T01:01:14.294Z,16.33
2022-09-15T01:03:40.951Z,16.58
2022-09-15T01:06:12.056Z,15.20
2022-09-15T01:08:46.008Z,20.50
2022-09-15T01:11:12.573Z,18.87
2022-09-15T01:13:39.186Z,19.42
2022-09-15T01:16:15.283Z,19.48
2022-09-15T01:18:57.694Z,18.08
2022-09-15T01:21:34.254Z,17.00
2022-09-15T01:24:40.440Z,21.40
2022-09-15T01:27:40.896Z,21.15
2022-09-15T01:30:15.191Z,20.17
2022-09-15T01:32:54.044Z,24.15
2022-09-15T01:35:29.079Z,19.13
2022-09-15T01:38:09.058Z,22.87
2022-09-15T01:40:40.691Z,21.58
2022-09-15T01:43:10.240Z,21.83
2022-09-15T01:45:41.853Z,19.33
2022-09-15T01:48:09.360Z,22.88
2022-09-15T01:50:44.240Z,17.70
2022-09-15T01:53:15.487Z,21.70
2022-09-15T01:55:46.605Z,22.27
2022-09-15T01:58:13.144Z,21.55
2022-09-15T02:00:44.837Z,21.63
2022-09-15T02:03:16.352Z,19.83
2022-09-15T02:05:49.023Z,23.23
2022-09-15T02:08:23.122Z,20.88
2022-09-15T02:10:56.289Z,23.63
2022-09-15T02:13:30.179Z,26.25
2022-09-15T02:16:00.396Z,22.37
2022-09-15T02:18:37.160Z,23.10
2022-09-15T02:21:09.264Z,21.85
2022-09-15T02:23:39.258Z,21.67
2022-09-15T02:26:10.822Z,21.90
2022-09-15T02:28:39.332Z,20.33
2022-09-15T02:31:11.267Z,22.33
2022-09-15T02:33:44.540Z,20.63
2022-09-15T02:36:13.468Z,22.83
2022-09-15T02:38:46.949Z,22.33
2022-09-15T02:41:13.540Z,19.70
2022-09-15T02:43:44.992Z,20.30
2022-09-15T02:46:13.066Z,21.15
2022-09-15T02:48:39.575Z,19.85
2022-09-15T02:51:06.522Z,20.02
2022-09-15T02:53:33.020Z,19.30
2022-09-15T02:55:59.914Z,21.37
2022-09-15T02:58:26.407Z,22.23
2022-09-15T03:00:53.064Z,20.77
2022-09-15T03:03:21.185Z,20.40
2022-09-15T03:05:47.982Z,20.65
2022-09-15T03:08:14.599Z,23.50
2022-09-15T03:10:41.132Z,22.13
2022-09-15T03:13:07.646Z,21.08
2022-09-15T03:15:34.169Z,20.25
2022-09-15T03:18:02.062Z,23.42
2022-09-15T03:20:29.935Z,24.87
2022-09-15T03:22:56.510Z,22.42
2022-09-15T03:25:23.030Z,23.23
2022-09-15T03:27:49.635Z,24.98
2022-09-15T03:30:16.149Z,21.38
2022-09-15T03:32:42.774Z,21.27
2022-09-15T03:35:10.040Z,19.70
2022-09-15T03:37:37.882Z,22.75
2022-09-15T03:40:05.483Z,23.60
2022-09-15T03:42:32.095Z,22.48
2022-09-15T03:44:58.635Z,24.23
2022-09-15T03:47:25.243Z,23.23
2022-09-15T03:49:51.732Z,23.27
2022-09-15T03:52:18.324Z,24.42
2022-09-15T03:54:48.152Z,21.58
2022-09-15T03:57:14.652Z,25.17
2022-09-15T03:59:41.178Z,21.60
2022-09-15T04:02:08.053Z,22.05
2022-09-15T04:04:34.691Z,22.23
2022-09-15T04:07:01.197Z,25.38
2022-09-15T04:09:28.019Z,24.57
2022-09-15T04:11:56.066Z,25.85
2022-09-15T04:14:22.712Z,22.88
2022-09-15T04:16:49.203Z,25.00
2022-09-15T04:19:15.794Z,24.85
2022-09-15T04:21:42.332Z,25.60
2022-09-15T04:24:08.918Z,24.42
2022-09-15T04:26:36.768Z,23.60
2022-09-15T04:29:05.925Z,24.92
2022-09-15T04:31:33.501Z,24.00
2022-09-15T04:34:00.516Z,27.97
2022-09-15T04:36:28.686Z,26.00
2022-09-15T04:38:55.702Z,25.40
2022-09-15T04:41:23.072Z,29.73
2022-09-15T04:43:50.199Z,25.48
2022-09-15T04:46:18.387Z,27.10
2022-09-15T04:48:45.784Z,27.58
2022-09-15T04:51:15.223Z,27.92
2022-09-15T04:53:42.208Z,27.80
2022-09-15T04:56:10.861Z,25.77
2022-09-15T04:58:38.710Z,25.73
2022-09-15T05:01:10.087Z,27.05
2022-09-15T05:03:38.266Z,24.83
2022-09-15T05:06:05.961Z,27.02
2022-09-15T05:08:32.618Z,24.38
2022-09-15T05:11:00.302Z,19.47
2022-09-15T05:13:27.130Z,23.38
2022-09-15T05:15:53.827Z,19.73
2022-09-15T05:18:20.467Z,23.02
2022-09-15T05:20:48.349Z,21.33
2022-09-15T05:23:14.937Z,20.50
2022-09-15T05:25:41.422Z,20.10
2022-09-15T05:28:08.028Z,22.88
2022-09-15T05:30:39.551Z,19.73
2022-09-15T05:33:06.237Z,26.00
2022-09-15T05:35:32.765Z,24.33
2022-09-15T05:38:00.700Z,19.80
2022-09-15T05:40:27.428Z,21.65
2022-09-15T05:42:53.950Z,23.95
2022-09-15T05:45:20.446Z,25.00
2022-09-15T05:47:46.957Z,22.80
2022-09-15T05:50:13.722Z,26.80
2022-09-15T05:52:40.231Z,25.05
2022-09-15T05:55:08.768Z,26.30
2022-09-15T05:57:35.256Z,25.13
2022-09-15T06:00:02.452Z,22.67
2022-09-15T06:02:29.030Z,26.08
2022-09-15T06:04:55.589Z,26.00
2022-09-15T06:07:22.192Z,26.00
2022-09-15T06:09:48.716Z,24.38
2022-09-15T06:12:16.700Z,28.10
2022-09-15T06:14:43.272Z,26.75
2022-09-15T06:17:09.757Z,24.05
2022-09-15T06:19:36.252Z,25.73
2022-09-15T06:22:02.905Z,25.65
2022-09-15T06:24:29.415Z,23.80
2022-09-15T06:26:55.936Z,24.17
2022-09-15T06:29:23.795Z,24.25
2022-09-15T06:31:50.354Z,25.88
2022-09-15T06:34:16.931Z,22.95
2022-09-15T06:36:43.467Z,22.60
2022-09-15T06:39:10.200Z,22.38
2022-09-15T06:42:00.691Z,23.13
2022-09-15T06:44:24.635Z,22.90
2022-09-15T06:46:51.110Z,23.50
2022-09-15T06:49:17.726Z,21.23
2022-09-15T06:51:44.598Z,23.17
2022-09-15T06:54:11.095Z,22.92
2022-09-15T06:56:39.330Z,22.08
2022-09-15T06:59:06.042Z,21.13
2022-09-15T07:01:34.190Z,22.10
2022-09-15T07:04:01.745Z,25.05
2022-09-15T07:06:29.101Z,24.45
2022-09-15T07:08:55.654Z,26.20
2022-09-15T07:11:22.150Z,23.50
2022-09-15T07:13:48.793Z,22.77
2022-09-15T07:16:16.021Z,21.00
2022-09-15T07:18:44.089Z,20.77
2022-09-15T07:21:13.458Z,23.90
2022-09-15T07:23:40.135Z,20.67
2022-09-15T07:26:08.907Z,20.77
2022-09-15T07:28:35.972Z,22.27
2022-09-15T07:31:03.629Z,20.48
2022-09-15T07:33:30.177Z,20.60
2022-09-15T07:35:58.166Z,19.85
2022-09-15T07:38:24.817Z,20.27
2022-09-15T07:40:51.325Z,19.80
2022-09-15T07:43:17.940Z,19.83
2022-09-15T07:45:44.520Z,18.02
2022-09-15T07:48:11.065Z,16.63
2022-09-15T07:50:37.822Z,17.47
2022-09-15T07:53:05.682Z,16.13
2022-09-15T07:55:32.659Z,16.83
2022-09-15T07:57:59.720Z,14.27
2022-09-15T08:00:26.917Z,15.80
2022-09-15T08:02:53.575Z,13.87
2022-09-15T08:05:20.225Z,15.73
2022-09-15T08:07:46.946Z,16.20
2022-09-15T08:10:14.949Z,17.20
2022-09-15T08:12:41.485Z,14.45
2022-09-15T08:15:08.388Z,15.20
2022-09-15T08:17:35.017Z,12.50
2022-09-15T08:20:01.957Z,15.00
2022-09-15T08:22:28.676Z,12.88
2022-09-15T08:24:55.269Z,10.50
2022-09-15T08:27:23.118Z,9.70
2022-09-15T08:29:49.640Z,10.95
2022-09-15T08:32:16.217Z,9.93
2022-09-15T08:34:42.765Z,7.93
2022-09-15T08:37:09.288Z,8.57
2022-09-15T08:39:35.780Z,9.07
2022-09-15T08:42:03.001Z,8.65
2022-09-15T08:44:40.611Z,9.68
2022-09-15T08:47:13.608Z,9.52
2022-09-15T08:49:52.102Z,7.85
2022-09-15T08:52:23.051Z,8.87
2022-09-15T08:54:52.987Z,8.05
2022-09-15T08:57:23.666Z,9.73
2022-09-15T08:59:52.497Z,9.05
2022-09-15T09:02:57.530Z,8.60
2022-09-15T09:05:49.593Z,8.67
2022-09-15T09:08:35.269Z,8.45
2022-09-15T09:11:12.141Z,10.57
2022-09-15T09:13:47.681Z,9.50
2022-09-15T09:16:32.780Z,11.35
2022-09-15T09:19:11.161Z,7.93
2022-09-15T09:21:41.374Z,8.77
2022-09-15T09:24:15.322Z,9.48
2022-09-15T09:26:41.894Z,8.70
2022-09-15T09:29:16.240Z,8.90
2022-09-15T09:31:47.574Z,8.97
2022-09-15T09:34:22.716Z,9.80
2022-09-15T09:36:53.089Z,8.95
2022-09-15T09:39:19.634Z,8.77
2022-09-15T09:41:46.196Z,9.80
2022-09-15T09:44:14.720Z,11.10
2022-09-15T09:46:41.551Z,12.48
2022-09-15T09:49:17.249Z,9.18
2022-09-15T09:51:53.981Z,10.05
2022-09-15T09:54:22.278Z,9.57
2022-09-15T09:56:49.910Z,9.60
2022-09-15T09:59:40.346Z,9.60
2022-09-15T10:02:18.659Z,10.68
2022-09-15T10:04:48.213Z,10.45
2022-09-15T10:07:16.928Z,9.27
2022-09-15T10:09:53.348Z,9.47
2022-09-15T10:12:23.679Z,16.42
2022-09-15T10:14:52.993Z,17.10
2022-09-15T10:17:22.138Z,18.42
2022-09-15T10:19:52.620Z,14.43
2022-09-15T10:22:25.634Z,11.07
2022-09-15T10:24:52.352Z,8.48
2022-09-15T10:27:25.882Z,7.53
2022-09-15T10:29:52.431Z,6.95
2022-09-15T10:32:25.690Z,7.00
2022-09-15T10:35:06.377Z,6.53
2022-09-15T10:37:37.570Z,7.88
2022-09-15T10:40:20.774Z,6.97
2022-09-15T10:42:51.461Z,5.85
2022-09-15T10:45:25.604Z,6.85
2022-09-15T10:48:31.196Z,6.70
2022-09-15T10:51:09.673Z,6.32
2022-09-15T10:53:53.570Z,7.43
2022-09-15T10:56:28.270Z,5.28
2022-09-15T10:59:02.667Z,5.55
2022-09-15T11:01:46.113Z,9.63
2022-09-15T11:04:38.473Z,6.78
2022-09-15T11:07:15.349Z,7.05
2022-09-15T11:09:44.407Z,8.75
2022-09-15T11:12:30.390Z,5.88
2022-09-15T11:15:19.402Z,7.53
2022-09-15T11:17:59.892Z,6.95
2022-09-15T11:20:41.042Z,5.20
2022-09-15T11:23:16.875Z,4.78
2022-09-15T11:25:46.544Z,6.68
2022-09-15T11:28:19.887Z,5.47
2022-09-15T11:30:55.726Z,3.88
2022-09-15T11:33:28.960Z,5.25
2022-09-15T11:36:01.146Z,5.40
2022-09-15T11:38:38.117Z,4.40
2022-09-15T11:41:17.722Z,4.27
2022-09-15T11:43:53.633Z,4.30
2022-09-15T11:46:26.122Z,4.45
2022-09-15T11:48:59.908Z,6.45
2022-09-15T11:51:29.300Z,3.60
2022-09-15T11:54:05.017Z,4.20
2022-09-15T11:56:36.515Z,3.90
2022-09-15T11:59:14.558Z,4.68
2022-09-15T12:01:48.778Z,4.10
2022-09-15T12:04:19.994Z,4.95
2022-09-15T12:06:51.561Z,3.43
2022-09-15T12:09:20.952Z,4.47
2022-09-15T12:11:49.653Z,3.20
2022-09-15T12:14:22.545Z,6.45
2022-09-15T12:16:49.833Z,4.80
2022-09-15T12:19:25.818Z,3.53
2022-09-15T12:22:00.089Z,4.43
2022-09-15T12:24:38.405Z,3.15
2022-09-15T12:27:05.018Z,4.10
2022-09-15T12:29:41.186Z,4.93
2022-09-15T12:32:21.286Z,5.10
2022-09-15T12:35:02.711Z,5.10
2022-09-15T12:37:40.070Z,3.95
2022-09-15T12:40:26.044Z,4.38
2022-09-15T12:42:53.049Z,5.55
2022-09-15T12:45:23.092Z,3.47
2022-09-15T12:47:53.210Z,7.07
2022-09-15T12:50:27.306Z,4.15
2022-09-15T12:52:58.127Z,2.80
2022-09-15T12:55:28.626Z,4.30
2022-09-15T12:57:57.826Z,2.50
2022-09-15T13:00:38.015Z,3.63
2022-09-15T13:03:26.868Z,4.32
2022-09-15T13:06:14.580Z,4.90
2022-09-15T13:08:52.458Z,3.72
2022-09-15T13:11:31.301Z,4.87
2022-09-15T13:14:10.321Z,3.92
2022-09-15T13:16:45.750Z,5.00
2022-09-15T13:19:19.289Z,4.85
2022-09-15T13:21:52.152Z,4.03
2022-09-15T13:24:24.231Z,3.40
2022-09-15T13:26:54.832Z,5.45
2022-09-15T13:29:22.727Z,6.15
2022-09-15T13:31:54.929Z,4.35
2022-09-15T13:35:08.027Z,3.70
2022-09-15T13:38:13.954Z,3.93
2022-09-15T13:41:15.441Z,3.90
2022-09-15T13:44:12.000Z,4.95
2022-09-15T13:46:53.495Z,3.80
2022-09-15T13:49:35.189Z,3.83
2022-09-15T13:52:12.468Z,3.30
2022-09-15T13:55:08.180Z,4.85
2022-09-15T14:00:29.639Z,4.55
2022-09-15T14:02:59.917Z,4.65
2022-09-15T14:05:29.739Z,4.30
2022-09-15T14:08:01.279Z,4.63
2022-09-15T14:10:31.957Z,4.03
2022-09-15T14:13:00.516Z,5.97
2022-09-15T14:15:29.719Z,5.78
2022-09-15T14:17:56.459Z,4.57
2022-09-15T14:20:27.015Z,4.47
2022-09-15T14:22:53.797Z,5.63
2022-09-15T14:25:21.650Z,6.25
2022-09-15T14:27:50.486Z,6.78
2022-09-15T14:30:21.045Z,5.10
2022-09-15T14:32:53.587Z,4.45
2022-09-15T14:35:24.147Z,5.72
2022-09-15T14:37:55.796Z,8.45
2022-09-15T14:40:29.218Z,4.72
2022-09-15T14:42:56.582Z,5.23
2022-09-15T14:45:57.853Z,3.97
2022-09-15T14:48:24.271Z,5.30
2022-09-15T14:51:00.401Z,6.30
2022-09-15T14:53:30.236Z,6.38
2022-09-15T14:56:07.088Z,7.47
2022-09-15T14:58:37.048Z,6.82
2022-09-15T15:01:09.163Z,6.78
2022-09-15T15:03:43.583Z,4.55
2022-09-15T15:06:30.510Z,5.95
2022-09-15T15:09:01.112Z,4.97
2022-09-15T15:11:28.992Z,4.57
2022-09-15T15:13:56.176Z,6.32
2022-09-15T15:16:26.369Z,6.53
2022-09-15T15:18:54.623Z,4.82
2022-09-15T15:21:34.796Z,5.03
2022-09-15T15:24:08.551Z,5.72
2022-09-15T15:26:36.849Z,3.50
2022-09-15T15:29:07.568Z,5.47
2022-09-15T15:31:39.078Z,5.25
2022-09-15T15:34:22.936Z,6.60
2022-09-15T15:36:49.485Z,4.13
2022-09-15T15:39:23.964Z,5.38
2022-09-15T15:42:00.635Z,5.13
2022-09-15T15:44:28.298Z,5.85
2022-09-15T15:46:57.260Z,6.20
2022-09-15T15:49:27.082Z,4.22
2022-09-15T15:51:54.184Z,4.55
2022-09-15T15:54:21.096Z,4.15
2022-09-15T15:56:47.605Z,5.47
2022-09-15T15:59:15.062Z,5.30
2022-09-15T16:01:42.256Z,5.40
2022-09-15T16:04:08.923Z,5.28
2022-09-15T16:06:36.836Z,4.68
2022-09-15T16:09:04.733Z,5.93
2022-09-15T16:11:31.531Z,4.67
2022-09-15T16:13:58.281Z,5.07
2022-09-15T16:16:26.445Z,4.05
2022-09-15T16:18:53.541Z,6.25
2022-09-15T16:21:31.698Z,3.90
2022-09-15T16:23:59.543Z,3.27
2022-09-15T16:26:26.077Z,5.90
2022-09-15T16:28:52.799Z,5.35
2022-09-15T16:31:19.468Z,3.92
2022-09-15T16:33:46.146Z,4.60
2022-09-15T16:36:14.203Z,4.47
2022-09-15T16:38:42.662Z,6.38
2022-09-15T16:41:15.169Z,4.68
2022-09-15T16:43:42.104Z,3.83
2022-09-15T16:46:09.730Z,7.72
2022-09-15T16:48:36.531Z,3.73
2022-09-15T16:51:27.077Z,4.97
2022-09-15T16:53:50.413Z,4.38
2022-09-15T16:56:18.455Z,3.88
2022-09-15T16:58:45.024Z,6.13
2022-09-15T17:01:16.485Z,5.50
2022-09-15T17:03:43.024Z,6.47
2022-09-15T17:06:12.752Z,5.47
2022-09-15T17:08:39.307Z,6.05
2022-09-15T17:11:06.487Z,6.40
2022-09-15T17:13:34.482Z,5.13
2022-09-15T17:16:01.736Z,7.03
2022-09-15T17:18:29.212Z,4.95
2022-09-15T17:20:56.008Z,5.22
2022-09-15T17:23:24.905Z,5.50
2022-09-15T17:25:53.077Z,6.37
2022-09-15T17:28:21.882Z,6.28
2022-09-15T17:30:51.923Z,6.60
2022-09-15T17:33:19.875Z,5.20
2022-09-15T17:35:47.275Z,5.95
2022-09-15T17:38:14.689Z,6.63
2022-09-15T17:40:41.500Z,6.30
2022-09-15T17:43:13.907Z,7.03
2022-09-15T17:45:40.675Z,6.72
2022-09-15T17:48:08.897Z,7.55
2022-09-15T17:50:36.371Z,6.67
2022-09-15T17:53:02.983Z,5.65
2022-09-15T17:55:31.825Z,6.15
2022-09-15T17:58:00.229Z,7.50
2022-09-15T18:00:29.693Z,6.68
2022-09-15T18:02:58.582Z,6.73
2022-09-15T18:05:29.022Z,7.93
2022-09-15T18:07:57.312Z,5.70
2022-09-15T18:10:25.165Z,9.25
2022-09-15T18:12:55.081Z,7.57
2022-09-15T18:15:24.579Z,7.23
2022-09-15T18:17:52.533Z,7.55
2022-09-15T18:20:23.332Z,6.60
2022-09-15T18:22:51.449Z,7.32
2022-09-15T18:25:20.400Z,6.85
2022-09-15T18:27:46.955Z,6.63
2022-09-15T18:30:13.605Z,9.35
2022-09-15T18:32:40.288Z,8.10
2022-09-15T18:35:08.330Z,6.22
2022-09-15T18:37:35.388Z,8.48
2022-09-15T18:40:04.284Z,7.17
2022-09-15T18:42:31.942Z,6.40
2022-09-15T18:44:58.856Z,9.27
2022-09-15T18:47:25.664Z,6.55
2022-09-15T18:49:52.205Z,7.18
2022-09-15T18:52:18.723Z,7.53
2022-09-15T18:54:45.257Z,7.75
2022-09-15T18:57:13.326Z,7.80
2022-09-15T18:59:39.866Z,6.80
2022-09-15T19:02:06.550Z,7.03
2022-09-15T19:04:37.250Z,8.80
2022-09-15T19:07:06.450Z,7.18
2022-09-15T19:09:33.068Z,7.18
2022-09-15T19:11:59.964Z,7.65
2022-09-15T19:14:29.023Z,9.20
2022-09-15T19:16:57.885Z,8.80
2022-09-15T19:19:25.011Z,7.43
2022-09-15T19:21:51.656Z,8.90
2022-09-15T19:24:18.233Z,6.97
2022-09-15T19:26:45.656Z,6.60
2022-09-15T19:29:12.848Z,7.57
2022-09-15T19:31:42.131Z,8.15
2022-09-15T19:34:08.904Z,7.50
2022-09-15T19:36:35.624Z,6.78
2022-09-15T19:39:02.373Z,6.72
2022-09-15T19:41:29.012Z,8.83
2022-09-15T19:43:55.523Z,7.68
2022-09-15T19:46:25.099Z,9.18
2022-09-15T19:48:53.795Z,7.60
2022-09-15T19:51:20.878Z,6.10
2022-09-15T19:53:47.660Z,10.10
2022-09-15T19:56:16.159Z,6.28
2022-09-15T19:58:42.915Z,7.75
2022-09-15T20:01:10.291Z,8.38
2022-09-15T20:03:37.104Z,8.38
2022-09-15T20:06:07.735Z,8.30
2022-09-15T20:08:35.183Z,9.07
2022-09-15T20:11:04.654Z,8.15
2022-09-15T20:13:31.545Z,9.10
2022-09-15T20:16:00.508Z,10.95
2022-09-15T20:18:27.505Z,7.83
2022-09-15T20:20:54.716Z,8.23
2022-09-15T20:23:23.152Z,12.13
2022-09-15T20:25:56.763Z,8.93
2022-09-15T20:28:23.667Z,9.15
2022-09-15T20:31:02.393Z,6.73
2022-09-15T20:33:29.476Z,8.35
2022-09-15T20:36:00.448Z,9.13
2022-09-15T20:38:28.529Z,8.25
2022-09-15T20:40:55.244Z,8.45
2022-09-15T20:43:21.889Z,7.03
2022-09-15T20:45:59.895Z,9.15
2022-09-15T20:48:27.236Z,8.50
2022-09-15T20:51:00.316Z,9.90
2022-09-15T20:53:28.346Z,7.45
2022-09-15T20:55:55.257Z,6.77
2022-09-15T20:58:21.853Z,7.40
2022-09-15T21:00:48.510Z,6.60
2022-09-15T21:03:15.744Z,6.35
2022-09-15T21:05:42.909Z,8.70
2022-09-15T21:08:09.669Z,8.13
2022-09-15T21:10:38.024Z,6.38
2022-09-15T21:13:05.275Z,7.53
2022-09-15T21:15:32.108Z,7.88
2022-09-15T21:17:58.831Z,7.32
2022-09-15T21:20:25.340Z,7.37
2022-09-15T21:22:54.057Z,9.07
2022-09-15T21:25:30.236Z,6.57
2022-09-15T21:27:58.229Z,8.45
2022-09-15T21:30:24.734Z,8.30
2022-09-15T21:32:51.280Z,6.47
2022-09-15T21:35:17.766Z,5.45
2022-09-15T21:37:44.308Z,5.80
2022-09-15T21:40:11.024Z,7.93
2022-09-15T21:42:37.540Z,7.30
2022-09-15T21:45:06.711Z,7.67
2022-09-15T21:47:33.261Z,7.63
2022-09-15T21:49:59.940Z,6.07
2022-09-15T21:52:26.545Z,6.53
2022-09-15T21:54:53.072Z,6.03
2022-09-15T21:57:19.710Z,7.43
2022-09-15T21:59:46.225Z,8.48
2022-09-15T22:02:14.230Z,6.60
2022-09-15T22:04:40.763Z,6.95
2022-09-15T22:07:07.300Z,7.15
2022-09-15T22:09:33.849Z,6.50
2022-09-15T22:12:00.663Z,5.95
2022-09-15T22:14:27.217Z,6.55
2022-09-15T22:16:53.822Z,7.25
2022-09-15T22:19:21.943Z,8.10
2022-09-15T22:21:48.518Z,7.33
2022-09-15T22:24:15.010Z,6.55
2022-09-15T22:26:42.624Z,7.05
2022-09-15T22:29:09.454Z,9.20
2022-09-15T22:31:36.328Z,8.75
2022-09-15T22:34:03.419Z,9.50
2022-09-15T22:36:31.932Z,7.35
2022-09-15T22:38:59.850Z,8.38
2022-09-15T22:41:26.345Z,10.05
2022-09-15T22:43:52.981Z,7.65
2022-09-15T22:46:19.838Z,11.83
2022-09-15T22:48:46.638Z,6.15
2022-09-15T22:51:14.501Z,8.52
2022-09-15T22:53:42.497Z,9.55
2022-09-15T22:56:11.591Z,7.53
2022-09-15T22:58:41.846Z,6.40
2022-09-15T23:01:10.818Z,7.72
2022-09-15T23:03:38.216Z,6.93
2022-09-15T23:06:05.829Z,6.40
2022-09-15T23:08:33.015Z,8.15
2022-09-15T23:11:05.895Z,6.43
2022-09-15T23:13:32.654Z,6.18
2022-09-15T23:15:59.375Z,5.97
2022-09-15T23:18:27.990Z,6.82
2022-09-15T23:20:59.147Z,6.82
2022-09-15T23:23:26.629Z,8.03
2022-09-15T23:25:53.273Z,5.88
2022-09-15T23:28:21.629Z,8.00
2022-09-15T23:30:51.829Z,6.63
2022-09-15T23:33:18.817Z,5.75
2022-09-15T23:35:45.536Z,8.47
2022-09-15T23:38:12.607Z,6.93
2022-09-15T23:40:40.768Z,6.28
2022-09-15T23:43:07.409Z,5.25
2022-09-15T23:45:35.422Z,6.78
2022-09-15T23:48:02.585Z,5.17
2022-09-15T23:50:29.137Z,5.10
2022-09-15T23:52:55.657Z,7.30
2022-09-15T23:55:22.454Z,7.40
2022-09-15T23:57:49.338Z,6.13
